Historique des mesures à Cassis (13260), France
Quotidien Résumé Janvier 31, 2018 Unités:  US    Métrique   Métrique/US
« Précédent (Jour)
Suivant (Jour) »
Quotidien Hebdomadaire Mensuel Annuel Période au choix
  Maximum: Minimum: Moyenne:
Température: 32 °F 45.1 °F 50 °F
Point de rosée: 32 °F 39.4 °F 42.4 °F
Humidité: Humidity % 64 % 71 %
Vitesse du vent: WindSpeedKMH mph 0.0 mph 1.5 mph
Rafales: WindSpeedGustKMH mph - -
Vent:- - West
Pression: 0 in 29.9 in -
Précipitations: 0 in    
Historical Graphs
 
 
Mesures pour : Janvier 31, 2018
Heure Temperature Point de rosée Pression Vent Vitesse du vent Rafales Humidité Pluie (par heure) Conditions
32 °F 32 °F 0 in Calm     Humidity % 0 in SoftwareType W/m2
00:12 50.7 °F 43.3 °F 30.2 in Calm     76 % 0 in open2300-1.11 W/m2
01:12 50.5 °F 43.2 °F 30.2 in NW 3.2 mph 3.5 mph 76 % 0 in open2300-1.11 W/m2
02:12 48.7 °F 41.4 °F 30.2 in NNW 4.3 mph 5.8 mph 76 % 0 in open2300-1.11 W/m2
03:12 47.5 °F 40.8 °F 30.2 in Calm   7.9 mph 78 % 0 in open2300-1.11 W/m2
04:12 47.7 °F 41.4 °F 30.2 in Calm     79 % 0 in open2300-1.11 W/m2
05:12 47.5 °F 41.4 °F 30.2 in Calm     79 % 0 in open2300-1.11 W/m2
06:12 46.9 °F 40.8 °F 30.2 in Calm     79 % 0 in open2300-1.11 W/m2
07:12 46.2 °F 40.1 °F 30.2 in Calm     79 % 0 in open2300-1.11 W/m2
08:12 45.1 °F 39.4 °F 30.2 in Calm     80 % 0 in open2300-1.11 W/m2
09:12 47.3 °F 41.5 °F 30.2 in Calm     80 % 0 in open2300-1.11 W/m2
10:12 50.5 °F 44.2 °F 30.1 in Calm   3.2 mph 79 % 0 in open2300-1.11 W/m2
11:12 52.2 °F 45.9 °F 30.1 in South 3.2 mph 3.2 mph 79 % 0 in open2300-1.11 W/m2
12:12 54.7 °F 47.1 °F 30.1 in West 4.0 mph 4.0 mph 76 % 0 in open2300-1.11 W/m2
13:12 53.8 °F 43.9 °F 30.1 in NW 4.7 mph 5.0 mph 69 % 0 in open2300-1.11 W/m2
14:12 54 °F 43.2 °F 30.1 in West 3.2 mph 4.0 mph 67 % 0 in open2300-1.11 W/m2
15:12 54.1 °F 42.3 °F 30.1 in West 7.6 mph 13.0 mph 64 % 0 in open2300-1.11 W/m2
16:12 52.9 °F 42.3 °F 30 in NNW 1.4 mph 13.0 mph 67 % 0 in open2300-1.11 W/m2
17:12 52.7 °F 42.8 °F 30 in Calm     69 % 0 in open2300-1.11 W/m2
18:12 52.9 °F 43.3 °F 30 in Calm     70 % 0 in open2300-1.11 W/m2
19:12 52.9 °F 43.9 °F 30 in Calm     71 % 0 in open2300-1.11 W/m2
20:12 52.5 °F 43.9 °F 30 in NNE 3.5 mph 3.5 mph 72 % 0 in open2300-1.11 W/m2
21:12 52.7 °F 44.1 °F 29.9 in Calm     72 % 0 in open2300-1.11 W/m2
22:12 51.6 °F 43.3 °F 29.9 in Calm     73 % 0 in open2300-1.11 W/m2
23:12 51.6 °F 43.5 °F 29.9 in NW 2.1 mph 2.1 mph 74 % 0 in open2300-1.11 W/m2
Observations météo à CASSIS
WU-History script by Weather Underground - 1 mb